Flight Track Log - Related Links

Times and Time Zones

All times are in EDT time to prevent confusion due to time zone crossing. See the EJA831 flight status page for this flight to view local times or setup timezone preferences in your user account.

Time Position Orientation Groundspeed Altitude Reporting Facility
EDT Latitude Longitude Course Direction KTS MPH feet Rate Location/Type
Sun 10:05:36 AM 37.4297 -77.3858 228° Southwest 250 288 7,400  Level Washington Center
Sun 10:06:37 AM 37.4200 -77.4772 262° West 255 293 9,600 1,918 Climbing Washington Center
Sun 10:07:38 AM 37.4081 -77.5736 261° West 267 307 11,300 1,686 Climbing Washington Center
Sun 10:08:38 AM 37.3961 -77.6753 262° West 288 331 13,000 2,168 Climbing Washington Center
Sun 10:09:37 AM 37.3836 -77.7822 262° West 303 349 15,600 2,471 Climbing Washington Center
Sun 10:10:37 AM 37.3692 -77.8861 260° West 308 354 17,900 2,150 Climbing Washington Center
Sun 10:11:37 AM 37.3567 -77.9903 261° West 314 361 19,900 1,438 Climbing Washington Center
Sun 10:12:38 AM 37.3336 -78.0994 255° West 314 361 20,800 1,537 Climbing Washington Center
Sun 10:13:38 AM 37.3150 -78.1953 256° West 319 367 23,000 2,237 Climbing Washington Center
Sun 10:14:36 AM 37.2919 -78.2911 253° West 309 356 25,200 1,525 Climbing Washington Center
Sun 10:15:36 AM 37.3272 -78.3839 296° West 284 327 26,000 793 Climbing Washington Center
Sun 10:16:37 AM 37.3942 -78.4672 315° West 293 337 26,800 1,636 Climbing Washington Center
Sun 10:17:37 AM 37.4733 -78.5619 316° Northwest 336 387 29,300 2,622 Climbing Washington Center
Sun 10:18:36 AM 37.5378 -78.6456 314° West 342 394 32,000 2,521 Climbing Washington Center
Sun 10:19:36 AM 37.6006 -78.7242 315° West 332 382 34,300 1,983 Climbing Washington Center
Sun 10:20:37 AM 37.6631 -78.8003 316° Northwest 321 369 36,000 836 Climbing Washington Center
Sun 10:21:38 AM 37.7217 -78.8761 314° West 321 369 36,000  Level Washington Center
Sun 10:22:38 AM 37.7881 -78.9606 315° West 327 376 36,000  Level Washington Center
Sun 10:23:36 AM 37.8567 -79.0478 315° West 333 383 36,000  Level Washington Center
Sun 10:24:37 AM 37.9244 -79.1508 310° West 345 397 36,000  Level Washington Center
Sun 10:25:37 AM 37.9778 -79.2536 303° West 345 397 36,000  Level Washington Center
Sun 10:26:38 AM 38.0328 -79.3592 304° West 351 404 36,000  Level Washington Center
Sun 10:27:38 AM 38.0800 -79.4511 303° West 351 404 36,000  Level Washington Center
Sun 10:28:36 AM 38.1328 -79.5542 303° West 351 404 36,000  Level Washington Center
Sun 10:29:38 AM 38.1836 -79.6572 302° West 351 404 36,000  Level Washington Center
Sun 10:30:38 AM 38.2386 -79.7608 304° West 351 404 36,000  Level Washington Center
Sun 10:31:36 AM 38.2969 -79.8753 303° West 351 404 36,000  Level Washington Center
Sun 10:32:37 AM 38.3456 -79.9758 302° West 351 404 36,000  Level Washington Center
Sun 10:33:37 AM 38.4000 -80.0825 303° West 351 404 36,000  Level Washington Center
Sun 10:34:38 AM 38.4522 -80.1864 303° West 351 404 36,000  Level Washington Center
Sun 10:35:36 AM 38.4989 -80.2794 303° West 351 404 36,000  Level Washington Center
Sun 10:37:03 AM 38.5822 -80.4392 304° West 354 407 36,000  Level Indianapolis Center
Sun 10:38:05 AM 38.6358 -80.5458 303° West 353 406 36,000  Level Indianapolis Center
Sun 10:39:07 AM 38.6886 -80.6517 303° West 353 406 36,000  Level Indianapolis Center
Sun 10:40:08 AM 38.7414 -80.7581 302° West 354 407 36,000  Level Indianapolis Center
Sun 10:41:10 AM 38.7936 -80.8633 302° West 351 404 36,000  Level Indianapolis Center
Sun 10:42:11 AM 38.8458 -80.9711 302° West 354 407 36,000  Level Indianapolis Center
Sun 10:43:13 AM 38.9008 -81.0786 303° West 360 414 36,000  Level Indianapolis Center
Sun 10:44:14 AM 38.9533 -81.1875 302° West 362 417 36,000  Level Indianapolis Center
Sun 10:45:16 AM 39.0178 -81.3200 302° West 366 421 36,000  Level Indianapolis Center
Sun 10:46:18 AM 39.0722 -81.4317 302° West 370 426 36,000  Level Indianapolis Center
Sun 10:47:19 AM 39.1261 -81.5431 302° West 370 426 36,000  Level Indianapolis Center
Sun 10:48:21 AM 39.1803 -81.6556 302° West 371 427 36,000  Level Indianapolis Center
Sun 10:49:22 AM 39.2347 -81.7686 302° West 372 428 36,000  Level Indianapolis Center
Sun 10:50:24 AM 39.2881 -81.8819 301° West 371 427 36,000  Level Indianapolis Center
Sun 10:51:25 AM 39.3431 -81.9956 302° West 373 429 36,000  Level Indianapolis Center
Sun 10:52:27 AM 39.4081 -82.1342 301° West 376 433 36,000 -293 Level Indianapolis Center
Sun 10:53:28 AM 39.4567 -82.2364 302° West 375 432 35,400 -488 Descending Indianapolis Center
Sun 10:54:30 AM 39.5081 -82.3458 301° West 354 407 35,000 -195 Descending Indianapolis Center
Sun 10:55:31 AM 39.5586 -82.4533 301° West 353 406 35,000 -878 Level Indianapolis Center
Sun 10:56:33 AM 39.6231 -82.5894 302° West 375 432 33,200 -1,805 Descending Indianapolis Center
Sun 10:57:34 AM 39.6775 -82.7044 302° West 372 428 31,300 -1,561 Descending Indianapolis Center
Sun 10:58:36 AM 39.7322 -82.8231 301° West 379 436 30,000 -1,122 Descending Indianapolis Center
Sun 10:59:37 AM 39.7864 -82.9394 301° West 375 432 29,000 -976 Descending Indianapolis Center
Sun 11:00:39 AM 39.8394 -83.0556 301° West 372 428 28,000 -488 Descending Indianapolis Center
Sun 11:01:40 AM 39.8917 -83.1669 301° West 362 417 28,000  Level Indianapolis Center
Sun 11:02:42 AM 39.9433 -83.2808 301° West 364 419 28,000  Level Indianapolis Center
Sun 11:03:43 AM 39.9950 -83.3942 301° West 366 421 28,000  Level Indianapolis Center
Sun 11:04:44 AM 40.0553 -83.5275 301° West 368 423 28,000  Level Indianapolis Center
Sun 11:05:46 AM 40.1083 -83.6439 301° West 371 427 28,000  Level Indianapolis Center
Sun 11:06:47 AM 40.1622 -83.7622 301° West 376 433 28,000  Level Indianapolis Center
Sun 11:07:49 AM 40.2158 -83.8822 300° West 379 436 28,000 -49 Level Indianapolis Center
Sun 11:08:50 AM 40.2700 -84.0019 301° West 379 436 27,900 -1,377 Descending Indianapolis Center
Sun 11:09:51 AM 40.3347 -84.1197 306° West 395 455 25,200 -2,683 Descending Indianapolis Center
Sun 11:10:53 AM 40.4039 -84.2319 309° West 392 451 22,400 -2,732 Descending Indianapolis Center
Sun 11:11:54 AM 40.4686 -84.3375 309° West 372 428 19,600 -2,634 Descending Indianapolis Center
Sun 11:12:56 AM 40.5292 -84.4400 308° West 353 406 17,000 -2,439 Descending Indianapolis Center
Sun 11:13:57 AM 40.5797 -84.5425 303° West 332 382 14,600 -2,195 Descending Indianapolis Center
Sun 11:14:59 AM 40.6058 -84.6433 289° West 291 335 12,500 -2,000 Descending Indianapolis Center
Sun 11:16:00 AM 40.6300 -84.7411 288° West 280 322 10,500 -2,049 Descending Indianapolis Center
Sun 11:17:02 AM 40.6589 -84.8578 288° West 285 328 8,300 -2,000 Descending Indianapolis Center
Sun 11:18:03 AM 40.6828 -84.9569 288° West 277 319 6,400 -1,854 Descending Indianapolis Center
Sun 11:19:05 AM 40.7058 -85.0500 288° West 270 311 4,500 -1,535 Descending Indianapolis Center
Sun 11:20:12 AM 40.7269 -85.1389 287° West 257 296 3,100 -698 Descending Chicago Center
Sun 11:21:14 AM 40.7497 -85.2294 288° West 256 295 3,000 -49 Descending Chicago Center
Sun 11:22:15 AM 40.7908 -85.3092 304° West 260 299 3,000  Level Chicago Center
Sun 11:23:17 AM 40.8492 -85.3522 331° Northwest 259 298 3,000 -48 Level Chicago Center
Sun 11:24:19 AM 40.8883 -85.3036 43° Northeast 217 250 2,900 -488 Descending Chicago Center
Sun 11:25:20 AM 40.9219 -85.2619 43° Northeast 168 193 2,000 -634 Descending Chicago Center
Sun 11:26:22 AM 40.9447 -85.2322 45° Northeast 153 176 1,600 -387 Descending Chicago Center

Login

Don't have an account? Register now (free) for customized features, flight alerts, and more!